| time (UTC) | temp F | wind direction | speed knots | gust knots | rain 1hr in | rain 24hr in | rain mn in | humidity % | barometer mb |
| 20260507212652 | 52 | 0.0 | 0.0 | 0.00 | 0.00 | 0.00 | 68 | 934.4 | |
| 20260507211052 | 52 | 0.0 | 0.0 | 0.00 | 0.00 | 0.00 | 68 | 934.6 | |
| 20260507205452 | 52 | 0.0 | 0.0 | 0.00 | 0.00 | 0.00 | 67 | 934.6 | |
| 20260507203851 | 52 | 0.0 | 0.0 | 0.00 | 0.00 | 0.00 | 66 | 934.2 | |
| 20260507202252 | 53 | 0.0 | 0.0 | 0.00 | 0.00 | 0.00 | 66 | 934.1 | |
| 20260507200652 | 53 | 0.0 | 0.0 | 0.00 | 0.00 | 0.00 | 66 | 933.9 | |
| 20260507195052 | 53 | 0.0 | 0.0 | 0.00 | 0.00 | 0.00 | 65 | 933.7 | |
| 20260507193452 | 54 | 0.0 | 0.0 | 0.00 | 0.00 | 0.00 | 64 | 933.6 | |
| 20260507191852 | 55 | 0.0 | 0.0 | 0.00 | 0.00 | 0.00 | 63 | 933.4 | |
| 20260507190252 | 56 | 0.0 | 0.0 | 0.00 | 0.00 | 0.00 | 62 | 933.3 | |
| 20260507184652 | 57 | 0.0 | 0.0 | 0.00 | 0.00 | 0.00 | 62 | 933.1 | |
| 20260507183052 | 58 | 0.0 | 0.0 | 0.00 | 0.00 | 0.00 | 61 | 933.0 | |
| 20260507181452 | 58 | 0.0 | 0.0 | 0.00 | 0.00 | 0.00 | 60 | 932.8 | |
| 20260507175852 | 59 | 0.0 | 0.0 | 0.00 | 0.00 | 0.00 | 60 | 932.6 | |
| 20260507174252 | 59 | 0.0 | 0.0 | 0.00 | 0.00 | 0.00 | 60 | 932.5 | |
| 20260507172652 | 59 | 0.0 | 0.0 | 0.00 | 0.00 | 0.00 | 60 | 932.3 | |
| 20260507171052 | 59 | 0.0 | 0.0 | 0.00 | 0.00 | 0.00 | 59 | 932.3 | |
| 20260507165452 | 60 | 0.0 | 0.0 | 0.00 | 0.00 | 0.00 | 58 | 932.2 | |
| 20260507163851 | 60 | 0.0 | 0.0 | 0.00 | 0.00 | 0.00 | 58 | 932.1 | |
| 20260507162252 | 60 | 0.0 | 0.0 | 0.00 | 0.00 | 0.00 | 58 | 932.1 | |
| 20260507160652 | 61 | 0.0 | 0.0 | 0.00 | 0.00 | 0.00 | 58 | 932.0 | |
| 20260507155052 | 61 | 0.0 | 0.0 | 0.00 | 0.00 | 0.00 | 58 | 932.2 | |
| 20260507153452 | 61 | 0.0 | 0.0 | 0.00 | 0.00 | 0.00 | 58 | 932.2 | |
| 20260507151852 | 61 | 0.0 | 0.0 | 0.00 | 0.00 | 0.00 | 58 | 932.2 | |
| 20260507150252 | 61 | 0.0 | 0.0 | 0.00 | 0.00 | 0.00 | 59 | 932.3 | |
| 20260507144652 | 61 | 0.0 | 0.0 | 0.00 | 0.00 | 0.00 | 63 | 932.3 | |
| 20260507143052 | 61 | 0.0 | 0.0 | 0.00 | 0.00 | 0.00 | 63 | 932.5 | |
| 20260507141452 | 62 | 0.0 | 0.0 | 0.00 | 0.00 | 0.00 | 62 | 932.5 | |
| 20260507135852 | 61 | 0.0 | 0.0 | 0.00 | 0.00 | 0.00 | 63 | 932.5 | |
| 20260507134252 | 61 | 0.0 | 0.0 | 0.00 | 0.00 | 0.00 | 64 | 932.7 | |
| 20260507132652 | 61 | 0.0 | 0.0 | 0.00 | 0.00 | 0.00 | 64 | 932.7 | |
| 20260507131052 | 61 | 0.0 | 0.0 | 0.00 | 0.00 | 0.00 | 64 | 932.7 | |
| 20260507125451 | 61 | 0.0 | 0.0 | 0.00 | 0.00 | 0.00 | 59 | 932.6 | |
| 20260507123851 | 60 | 0.0 | 0.0 | 0.00 | 0.00 | 0.00 | 58 | 932.6 | |
| 20260507122251 | 58 | 0.0 | 0.0 | 0.00 | 0.00 | 0.00 | 63 | 932.6 | |
| 20260507120651 | 57 | 0.0 | 0.0 | 0.00 | 0.00 | 0.00 | 62 | 932.6 | |
| 20260507115051 | 56 | 0.0 | 0.0 | 0.00 | 0.00 | 0.00 | 68 | 932.8 | |
| 20260507113451 | 58 | 0.0 | 0.0 | 0.00 | 0.00 | 0.00 | 67 | 933.0 | |
| 20260507111851 | 58 | 0.0 | 0.0 | 0.00 | 0.00 | 0.00 | 67 | 933.0 | |
| 20260507110251 | 58 | 0.0 | 0.0 | 0.00 | 0.00 | 0.00 | 67 | 933.0 | |
| 20260507104652 | 58 | 0.0 | 0.0 | 0.00 | 0.00 | 0.00 | 67 | 933.0 | |
| 20260507103052 | 57 | 0.0 | 0.0 | 0.00 | 0.00 | 0.00 | 68 | 933.2 | |
| 20260507101452 | 58 | 0.0 | 0.0 | 0.00 | 0.00 | 0.00 | 68 | 933.2 | |
| 20260507095852 | 58 | 0.0 | 0.0 | 0.00 | 0.00 | 0.00 | 66 | 933.1 | |
| 20260507094252 | 60 | 0.0 | 0.0 | 0.00 | 0.00 | 0.00 | 66 | 932.9 | |
| 20260507092652 | 60 | 0.0 | 0.0 | 0.00 | 0.00 | 0.00 | 65 | 932.8 | |
| 20260507091052 | 59 | 0.0 | 0.0 | 0.00 | 0.00 | 0.00 | 67 | 932.7 | |
| 20260507085452 | 58 | 0.0 | 0.0 | 0.00 | 0.00 | 0.00 | 68 | 932.7 | |
| 20260507083852 | 57 | 0.0 | 0.0 | 0.00 | 0.00 | 0.00 | 70 | 932.7 | |
| 20260507082252 | 56 | 0.0 | 0.0 | 0.00 | 0.00 | 0.00 | 73 | 932.6 | |
| 20260507080652 | 55 | 0.0 | 0.0 | 0.00 | 0.00 | 0.00 | 74 | 932.6 | |
| 20260507075052 | 54 | 0.0 | 0.0 | 0.00 | 0.00 | 0.00 | 74 | 932.6 | |
| 20260507073452 | 49 | 0.0 | 0.0 | 0.00 | 0.00 | 0.00 | 79 | 932.5 | |
| 20260507071852 | 49 | 0.0 | 0.0 | 0.00 | 0.00 | 0.00 | 79 | 932.5 | |
| 20260507070252 | 49 | 0.0 | 0.0 | 0.00 | 0.00 | 0.00 | 79 | 932.5 | |
| 20260507064652 | 48 | 0.0 | 0.0 | 0.00 | 0.00 | 0.00 | 80 | 932.4 | |
| 20260507063052 | 47 | 0.0 | 0.0 | 0.00 | 0.00 | 0.00 | 81 | 932.4 | |
| 20260507061452 | 45 | 0.0 | 0.0 | 0.00 | 0.00 | 0.00 | 82 | 932.3 | |
| 20260507055852 | 43 | 0.0 | 0.0 | 0.00 | 0.00 | 0.00 | 81 | 932.1 | |
| 20260507052718 | 43 | 0.0 | 0.0 | 0.00 | 0.00 | 0.00 | 81 | 931.7 | |
| 20260507051119 | 43 | 0.0 | 0.0 | 0.00 | 0.00 | 0.00 | 81 | 931.7 | |
| 20260507045519 | 43 | 0.0 | 0.0 | 0.00 | 0.00 | 0.00 | 81 | 931.6 | |
| 20260507043919 | 43 | 0.0 | 0.0 | 0.00 | 0.00 | 0.00 | 81 | 931.5 | |
| 20260507042319 | 43 | 0.0 | 0.0 | 0.00 | 0.00 | 0.00 | 81 | 931.4 | |
| 20260507040719 | 43 | 0.0 | 0.0 | 0.00 | 0.00 | 0.00 | 81 | 931.3 | |
| 20260507035119 | 43 | 0.0 | 0.0 | 0.00 | 0.00 | 0.00 | 81 | 931.4 | |
| 20260507033519 | 44 | 0.0 | 0.0 | 0.00 | 0.00 | 0.00 | 81 | 931.5 | |
| 20260507031919 | 44 | 0.0 | 0.0 | 0.00 | 0.00 | 0.00 | 81 | 931.4 | |
| 20260507030319 | 44 | 0.0 | 0.0 | 0.00 | 0.00 | 0.00 | 81 | 931.4 | |
| 20260507024719 | 44 | 0.0 | 0.0 | 0.00 | 0.00 | 0.00 | 81 | 931.4 | |
| 20260507023119 | 45 | 0.0 | 0.0 | 0.00 | 0.00 | 0.00 | 81 | 931.5 | |
| 20260507021519 | 45 | 0.0 | 0.0 | 0.00 | 0.00 | 0.00 | 81 | 931.5 | |
| 20260507015919 | 45 | 0.0 | 0.0 | 0.00 | 0.00 | 0.00 | 81 | 931.3 | |
| 20260507014319 | 45 | 0.0 | 0.0 | 0.00 | 0.00 | 0.00 | 81 | 930.9 | |
| 20260507012719 | 45 | 0.0 | 0.0 | 0.00 | 0.00 | 0.00 | 81 | 930.9 | |
| 20260507011119 | 45 | 0.0 | 0.0 | 0.00 | 0.00 | 0.00 | 81 | 931.0 | |
| 20260507005519 | 46 | 0.0 | 0.0 | 0.00 | 0.00 | 0.00 | 81 | 931.1 | |
| 20260507003919 | 46 | 0.0 | 0.0 | 0.00 | 0.00 | 0.00 | 81 | 930.9 | |
| 20260507002319 | 46 | 0.0 | 0.0 | 0.00 | 0.00 | 0.00 | 81 | 930.8 | |
| 20260507000719 | 46 | 0.0 | 0.0 | 0.00 | 0.00 | 0.00 | 82 | 930.9 | |
| 20260506235119 | 46 | 0.0 | 0.0 | 0.00 | 0.00 | 0.00 | 82 | 930.8 | |
| 20260506233519 | 46 | 0.0 | 0.0 | 0.00 | 0.00 | 0.00 | 82 | 930.9 | |
| 20260506231919 | 46 | 0.0 | 0.0 | 0.00 | 0.00 | 0.00 | 82 | 930.9 | |
| 20260506230319 | 46 | 0.0 | 0.0 | 0.00 | 0.00 | 0.00 | 82 | 931.0 | |
| 20260506224719 | 46 | 0.0 | 0.0 | 0.00 | 0.00 | 0.00 | 81 | 931.3 | |
| 20260506223118 | 46 | 0.0 | 0.0 | 0.00 | 0.00 | 0.00 | 81 | 931.1 | |
| 20260506221519 | 46 | 0.0 | 0.0 | 0.00 | 0.00 | 0.00 | 81 | 931.1 | |
| 20260506215919 | 46 | 0.0 | 0.0 | 0.00 | 0.00 | 0.00 | 81 | 930.8 | |
| 20260506214319 | 46 | 0.0 | 0.0 | 0.00 | 0.00 | 0.00 | 80 | 930.6 |